sensor_id;sensor_type;location;lat;lon;timestamp;temperature;humidity
71084;DHT22;58741;52.672;13.548;2024-01-30T00:01:58;0.70;99.90
71084;DHT22;58741;52.672;13.548;2024-01-30T00:04:24;0.70;99.90
71084;DHT22;58741;52.672;13.548;2024-01-30T00:06:51;0.70;99.90
71084;DHT22;58741;52.672;13.548;2024-01-30T00:09:19;0.70;99.90
71084;DHT22;58741;52.672;13.548;2024-01-30T00:11:46;0.70;99.90
71084;DHT22;58741;52.672;13.548;2024-01-30T00:14:13;0.70;99.90
71084;DHT22;58741;52.672;13.548;2024-01-30T00:16:40;0.70;99.90
71084;DHT22;58741;52.672;13.548;2024-01-30T00:19:07;0.70;99.90
71084;DHT22;58741;52.672;13.548;2024-01-30T00:21:34;0.70;99.90
71084;DHT22;58741;52.672;13.548;2024-01-30T00:24:02;0.70;99.90
71084;DHT22;58741;52.672;13.548;2024-01-30T00:26:28;0.70;99.90
71084;DHT22;58741;52.672;13.548;2024-01-30T00:28:55;0.60;99.90
71084;DHT22;58741;52.672;13.548;2024-01-30T00:31:22;0.60;99.90
71084;DHT22;58741;52.672;13.548;2024-01-30T00:33:48;0.60;99.90
71084;DHT22;58741;52.672;13.548;2024-01-30T00:36:15;0.60;99.90
71084;DHT22;58741;52.672;13.548;2024-01-30T00:38:42;0.60;99.90
71084;DHT22;58741;52.672;13.548;2024-01-30T00:41:09;0.60;99.90
71084;DHT22;58741;52.672;13.548;2024-01-30T00:43:36;0.60;99.90
71084;DHT22;58741;52.672;13.548;2024-01-30T00:46:03;0.60;99.90
71084;DHT22;58741;52.672;13.548;2024-01-30T00:48:29;0.50;99.90
71084;DHT22;58741;52.672;13.548;2024-01-30T00:50:56;0.50;99.90
71084;DHT22;58741;52.672;13.548;2024-01-30T00:53:23;0.50;99.90
71084;DHT22;58741;52.672;13.548;2024-01-30T00:55:49;0.50;99.90
71084;DHT22;58741;52.672;13.548;2024-01-30T00:58:16;0.50;99.90
71084;DHT22;58741;52.672;13.548;2024-01-30T01:00:43;0.50;99.90
71084;DHT22;58741;52.672;13.548;2024-01-30T01:03:10;0.50;99.90
71084;DHT22;58741;52.672;13.548;2024-01-30T01:05:36;0.50;99.90
71084;DHT22;58741;52.672;13.548;2024-01-30T01:08:03;0.50;99.90
71084;DHT22;58741;52.672;13.548;2024-01-30T01:10:30;0.50;99.90
71084;DHT22;58741;52.672;13.548;2024-01-30T01:12:57;0.50;99.90
71084;DHT22;58741;52.672;13.548;2024-01-30T01:15:24;0.50;99.90
71084;DHT22;58741;52.672;13.548;2024-01-30T01:17:55;0.50;99.90
71084;DHT22;58741;52.672;13.548;2024-01-30T01:20:22;0.50;99.90
71084;DHT22;58741;52.672;13.548;2024-01-30T01:22:49;0.50;99.90
71084;DHT22;58741;52.672;13.548;2024-01-30T01:25:15;0.40;99.90
71084;DHT22;58741;52.672;13.548;2024-01-30T01:27:42;0.40;99.90
71084;DHT22;58741;52.672;13.548;2024-01-30T01:30:11;0.40;99.90
71084;DHT22;58741;52.672;13.548;2024-01-30T01:32:40;0.40;99.90
71084;DHT22;58741;52.672;13.548;2024-01-30T01:35:11;0.30;99.90
71084;DHT22;58741;52.672;13.548;2024-01-30T01:37:38;0.30;99.90
71084;DHT22;58741;52.672;13.548;2024-01-30T01:40:05;0.30;99.90
71084;DHT22;58741;52.672;13.548;2024-01-30T01:42:32;0.20;99.90
71084;DHT22;58741;52.672;13.548;2024-01-30T01:44:59;0.20;99.90
71084;DHT22;58741;52.672;13.548;2024-01-30T01:47:26;0.20;99.90
71084;DHT22;58741;52.672;13.548;2024-01-30T01:49:52;0.10;99.90
71084;DHT22;58741;52.672;13.548;2024-01-30T01:52:19;0.10;99.90
71084;DHT22;58741;52.672;13.548;2024-01-30T01:54:46;0.10;99.90
71084;DHT22;58741;52.672;13.548;2024-01-30T01:57:13;0.10;99.90
71084;DHT22;58741;52.672;13.548;2024-01-30T01:59:40;0.10;99.90
71084;DHT22;58741;52.672;13.548;2024-01-30T02:02:08;0.10;99.90
71084;DHT22;58741;52.672;13.548;2024-01-30T02:04:37;0.10;99.90
71084;DHT22;58741;52.672;13.548;2024-01-30T02:07:04;0.10;99.90
71084;DHT22;58741;52.672;13.548;2024-01-30T02:09:31;0.10;99.90
71084;DHT22;58741;52.672;13.548;2024-01-30T02:11:58;0.00;99.90
71084;DHT22;58741;52.672;13.548;2024-01-30T02:14:24;0.00;99.90
71084;DHT22;58741;52.672;13.548;2024-01-30T02:16:54;0.00;99.90
71084;DHT22;58741;52.672;13.548;2024-01-30T02:19:21;0.00;99.90
71084;DHT22;58741;52.672;13.548;2024-01-30T02:21:48;0.00;99.90
71084;DHT22;58741;52.672;13.548;2024-01-30T02:24:15;0.00;99.90
71084;DHT22;58741;52.672;13.548;2024-01-30T02:26:41;0.00;99.90
71084;DHT22;58741;52.672;13.548;2024-01-30T02:29:08;0.00;99.90
71084;DHT22;58741;52.672;13.548;2024-01-30T02:31:35;0.00;99.90
71084;DHT22;58741;52.672;13.548;2024-01-30T02:34:01;0.00;99.90
71084;DHT22;58741;52.672;13.548;2024-01-30T02:36:28;0.00;99.90
71084;DHT22;58741;52.672;13.548;2024-01-30T02:38:55;0.00;99.90
71084;DHT22;58741;52.672;13.548;2024-01-30T02:41:21;0.00;99.90
71084;DHT22;58741;52.672;13.548;2024-01-30T02:43:48;0.00;99.90
71084;DHT22;58741;52.672;13.548;2024-01-30T02:46:15;0.00;99.90
71084;DHT22;58741;52.672;13.548;2024-01-30T02:48:41;0.00;99.90
71084;DHT22;58741;52.672;13.548;2024-01-30T02:51:08;0.00;99.90
71084;DHT22;58741;52.672;13.548;2024-01-30T02:53:35;0.00;99.90
71084;DHT22;58741;52.672;13.548;2024-01-30T02:56:02;0.00;99.90
71084;DHT22;58741;52.672;13.548;2024-01-30T02:58:29;0.00;99.90
71084;DHT22;58741;52.672;13.548;2024-01-30T03:00:56;0.00;99.90
71084;DHT22;58741;52.672;13.548;2024-01-30T03:03:23;0.00;99.90
71084;DHT22;58741;52.672;13.548;2024-01-30T03:05:49;0.00;99.90
71084;DHT22;58741;52.672;13.548;2024-01-30T03:08:16;-0.10;99.90
71084;DHT22;58741;52.672;13.548;2024-01-30T03:10:43;-0.10;99.90
71084;DHT22;58741;52.672;13.548;2024-01-30T03:13:10;-0.10;99.90
71084;DHT22;58741;52.672;13.548;2024-01-30T03:15:36;-0.10;99.90
71084;DHT22;58741;52.672;13.548;2024-01-30T03:18:03;-0.10;99.90
71084;DHT22;58741;52.672;13.548;2024-01-30T03:20:30;-0.10;99.90
71084;DHT22;58741;52.672;13.548;2024-01-30T03:23:00;-0.10;99.90
71084;DHT22;58741;52.672;13.548;2024-01-30T03:25:26;-0.10;99.90
71084;DHT22;58741;52.672;13.548;2024-01-30T03:27:53;-0.20;99.90
71084;DHT22;58741;52.672;13.548;2024-01-30T03:30:20;-0.20;99.90
71084;DHT22;58741;52.672;13.548;2024-01-30T03:32:46;-0.20;99.90
71084;DHT22;58741;52.672;13.548;2024-01-30T03:35:13;-0.20;99.90
71084;DHT22;58741;52.672;13.548;2024-01-30T03:37:40;-0.20;99.90
71084;DHT22;58741;52.672;13.548;2024-01-30T03:40:07;-0.30;99.90
71084;DHT22;58741;52.672;13.548;2024-01-30T03:42:34;-0.30;99.90
71084;DHT22;58741;52.672;13.548;2024-01-30T03:45:01;-0.30;99.90
71084;DHT22;58741;52.672;13.548;2024-01-30T03:47:28;-0.30;99.90
71084;DHT22;58741;52.672;13.548;2024-01-30T03:49:55;-0.30;99.90
71084;DHT22;58741;52.672;13.548;2024-01-30T03:52:22;-0.30;99.90
71084;DHT22;58741;52.672;13.548;2024-01-30T03:54:49;-0.30;99.90
71084;DHT22;58741;52.672;13.548;2024-01-30T03:57:16;-0.30;99.90
71084;DHT22;58741;52.672;13.548;2024-01-30T03:59:42;-0.30;99.90
71084;DHT22;58741;52.672;13.548;2024-01-30T04:02:12;-0.30;99.90
71084;DHT22;58741;52.672;13.548;2024-01-30T04:04:39;-0.30;99.90
71084;DHT22;58741;52.672;13.548;2024-01-30T04:07:06;-0.30;99.90
71084;DHT22;58741;52.672;13.548;2024-01-30T04:09:33;-0.30;99.90
71084;DHT22;58741;52.672;13.548;2024-01-30T04:12:00;-0.30;99.90
71084;DHT22;58741;52.672;13.548;2024-01-30T04:14:26;-0.30;99.90
71084;DHT22;58741;52.672;13.548;2024-01-30T04:16:53;-0.30;99.90
71084;DHT22;58741;52.672;13.548;2024-01-30T04:19:19;-0.30;99.90
71084;DHT22;58741;52.672;13.548;2024-01-30T04:21:46;-0.30;99.90
71084;DHT22;58741;52.672;13.548;2024-01-30T04:24:13;-0.30;99.90
71084;DHT22;58741;52.672;13.548;2024-01-30T04:26:40;-0.40;99.90
71084;DHT22;58741;52.672;13.548;2024-01-30T04:29:06;-0.40;99.90
71084;DHT22;58741;52.672;13.548;2024-01-30T04:31:33;-0.40;99.90
71084;DHT22;58741;52.672;13.548;2024-01-30T04:34:00;-0.40;99.90
71084;DHT22;58741;52.672;13.548;2024-01-30T04:36:26;-0.40;99.90
71084;DHT22;58741;52.672;13.548;2024-01-30T04:38:53;-0.40;99.90
71084;DHT22;58741;52.672;13.548;2024-01-30T04:41:20;-0.40;99.90
71084;DHT22;58741;52.672;13.548;2024-01-30T04:43:46;-0.40;99.90
71084;DHT22;58741;52.672;13.548;2024-01-30T04:46:13;-0.40;99.90
71084;DHT22;58741;52.672;13.548;2024-01-30T04:48:40;-0.40;99.90
71084;DHT22;58741;52.672;13.548;2024-01-30T04:51:06;-0.40;99.90
71084;DHT22;58741;52.672;13.548;2024-01-30T04:53:33;-0.40;99.90
71084;DHT22;58741;52.672;13.548;2024-01-30T04:56:00;-0.40;99.90
71084;DHT22;58741;52.672;13.548;2024-01-30T04:58:26;-0.40;99.90
71084;DHT22;58741;52.672;13.548;2024-01-30T05:00:53;-0.40;99.90
71084;DHT22;58741;52.672;13.548;2024-01-30T05:03:20;-0.40;99.90
71084;DHT22;58741;52.672;13.548;2024-01-30T05:05:49;-0.40;99.90
71084;DHT22;58741;52.672;13.548;2024-01-30T05:08:15;-0.40;99.90
71084;DHT22;58741;52.672;13.548;2024-01-30T05:10:42;-0.50;99.90
71084;DHT22;58741;52.672;13.548;2024-01-30T05:13:09;-0.50;99.90
71084;DHT22;58741;52.672;13.548;2024-01-30T05:15:36;-0.50;99.90
71084;DHT22;58741;52.672;13.548;2024-01-30T05:18:02;-0.50;99.90
71084;DHT22;58741;52.672;13.548;2024-01-30T05:20:29;-0.40;99.90
71084;DHT22;58741;52.672;13.548;2024-01-30T05:22:56;-0.50;99.90
71084;DHT22;58741;52.672;13.548;2024-01-30T05:25:23;-0.50;99.90
71084;DHT22;58741;52.672;13.548;2024-01-30T05:27:50;-0.40;99.90
71084;DHT22;58741;52.672;13.548;2024-01-30T05:30:16;-0.40;99.90
71084;DHT22;58741;52.672;13.548;2024-01-30T05:32:43;-0.40;99.90
71084;DHT22;58741;52.672;13.548;2024-01-30T05:35:10;-0.40;99.90
71084;DHT22;58741;52.672;13.548;2024-01-30T05:37:37;-0.40;99.90
71084;DHT22;58741;52.672;13.548;2024-01-30T05:40:04;-0.40;99.90
71084;DHT22;58741;52.672;13.548;2024-01-30T05:42:31;-0.40;99.90
71084;DHT22;58741;52.672;13.548;2024-01-30T05:44:58;-0.40;99.90
71084;DHT22;58741;52.672;13.548;2024-01-30T05:47:24;-0.40;99.90
71084;DHT22;58741;52.672;13.548;2024-01-30T05:49:51;-0.40;99.90
71084;DHT22;58741;52.672;13.548;2024-01-30T05:52:18;-0.40;99.90
71084;DHT22;58741;52.672;13.548;2024-01-30T05:54:45;-0.40;99.90
71084;DHT22;58741;52.672;13.548;2024-01-30T05:57:12;-0.40;99.90
71084;DHT22;58741;52.672;13.548;2024-01-30T05:59:39;-0.40;99.90
71084;DHT22;58741;52.672;13.548;2024-01-30T06:02:07;-0.40;99.90
71084;DHT22;58741;52.672;13.548;2024-01-30T06:04:34;-0.40;99.90
71084;DHT22;58741;52.672;13.548;2024-01-30T06:07:01;-0.40;99.90
71084;DHT22;58741;52.672;13.548;2024-01-30T06:09:28;-0.30;99.90
71084;DHT22;58741;52.672;13.548;2024-01-30T06:11:55;-0.30;99.90
71084;DHT22;58741;52.672;13.548;2024-01-30T06:14:22;-0.40;99.90
71084;DHT22;58741;52.672;13.548;2024-01-30T06:16:49;-0.40;99.90
71084;DHT22;58741;52.672;13.548;2024-01-30T06:19:16;-0.30;99.90
71084;DHT22;58741;52.672;13.548;2024-01-30T06:21:42;-0.30;99.90
71084;DHT22;58741;52.672;13.548;2024-01-30T06:24:09;-0.30;99.90
71084;DHT22;58741;52.672;13.548;2024-01-30T06:26:36;-0.30;99.90
71084;DHT22;58741;52.672;13.548;2024-01-30T06:29:02;-0.30;99.90
71084;DHT22;58741;52.672;13.548;2024-01-30T06:31:29;-0.30;99.90
71084;DHT22;58741;52.672;13.548;2024-01-30T06:33:56;-0.30;99.90
71084;DHT22;58741;52.672;13.548;2024-01-30T06:36:23;-0.30;99.90
71084;DHT22;58741;52.672;13.548;2024-01-30T06:38:49;-0.30;99.90
71084;DHT22;58741;52.672;13.548;2024-01-30T06:41:16;-0.40;99.90
71084;DHT22;58741;52.672;13.548;2024-01-30T06:43:43;-0.30;99.90
71084;DHT22;58741;52.672;13.548;2024-01-30T06:46:11;-0.30;99.90
71084;DHT22;58741;52.672;13.548;2024-01-30T06:48:38;-0.30;99.90
71084;DHT22;58741;52.672;13.548;2024-01-30T06:51:07;-0.30;99.90
71084;DHT22;58741;52.672;13.548;2024-01-30T06:53:33;-0.30;99.90
71084;DHT22;58741;52.672;13.548;2024-01-30T06:56:00;-0.30;99.90
71084;DHT22;58741;52.672;13.548;2024-01-30T06:58:27;-0.30;99.90
71084;DHT22;58741;52.672;13.548;2024-01-30T07:00:54;-0.30;99.90
71084;DHT22;58741;52.672;13.548;2024-01-30T07:03:21;-0.30;99.90
71084;DHT22;58741;52.672;13.548;2024-01-30T07:05:48;-0.20;99.90
71084;DHT22;58741;52.672;13.548;2024-01-30T07:08:15;-0.20;99.90
71084;DHT22;58741;52.672;13.548;2024-01-30T07:10:44;-0.20;99.90
71084;DHT22;58741;52.672;13.548;2024-01-30T07:13:11;-0.20;99.90
71084;DHT22;58741;52.672;13.548;2024-01-30T07:15:38;-0.20;99.90
71084;DHT22;58741;52.672;13.548;2024-01-30T07:18:05;-0.20;99.90
71084;DHT22;58741;52.672;13.548;2024-01-30T07:20:32;-0.10;99.90
71084;DHT22;58741;52.672;13.548;2024-01-30T07:22:59;-0.10;99.90
71084;DHT22;58741;52.672;13.548;2024-01-30T07:25:26;-0.10;99.90
71084;DHT22;58741;52.672;13.548;2024-01-30T07:27:53;0.00;99.90
71084;DHT22;58741;52.672;13.548;2024-01-30T07:30:20;0.00;99.90
71084;DHT22;58741;52.672;13.548;2024-01-30T07:32:47;0.00;99.90
71084;DHT22;58741;52.672;13.548;2024-01-30T07:35:14;0.00;99.90
71084;DHT22;58741;52.672;13.548;2024-01-30T07:37:41;0.00;99.90
71084;DHT22;58741;52.672;13.548;2024-01-30T07:40:08;0.10;99.90
71084;DHT22;58741;52.672;13.548;2024-01-30T07:42:35;0.10;99.90
71084;DHT22;58741;52.672;13.548;2024-01-30T07:45:02;0.20;99.90
71084;DHT22;58741;52.672;13.548;2024-01-30T07:47:28;0.20;99.90
71084;DHT22;58741;52.672;13.548;2024-01-30T07:49:55;0.30;99.90
71084;DHT22;58741;52.672;13.548;2024-01-30T07:52:22;0.40;99.90
71084;DHT22;58741;52.672;13.548;2024-01-30T07:54:50;0.40;99.90
71084;DHT22;58741;52.672;13.548;2024-01-30T07:57:17;0.40;99.90
71084;DHT22;58741;52.672;13.548;2024-01-30T07:59:45;0.50;99.90
71084;DHT22;58741;52.672;13.548;2024-01-30T08:02:13;0.60;99.90
71084;DHT22;58741;52.672;13.548;2024-01-30T08:04:40;0.60;99.90
71084;DHT22;58741;52.672;13.548;2024-01-30T08:07:07;0.70;99.90
71084;DHT22;58741;52.672;13.548;2024-01-30T08:09:33;0.80;99.90
71084;DHT22;58741;52.672;13.548;2024-01-30T08:12:00;0.80;99.90
71084;DHT22;58741;52.672;13.548;2024-01-30T08:14:27;0.90;99.90
71084;DHT22;58741;52.672;13.548;2024-01-30T08:16:54;0.90;99.90
71084;DHT22;58741;52.672;13.548;2024-01-30T08:19:21;1.00;99.90
71084;DHT22;58741;52.672;13.548;2024-01-30T08:21:48;1.10;99.90
71084;DHT22;58741;52.672;13.548;2024-01-30T08:24:15;1.20;99.90
71084;DHT22;58741;52.672;13.548;2024-01-30T08:26:42;1.20;99.90
71084;DHT22;58741;52.672;13.548;2024-01-30T08:29:09;1.30;99.90
71084;DHT22;58741;52.672;13.548;2024-01-30T08:31:36;1.40;99.90
71084;DHT22;58741;52.672;13.548;2024-01-30T08:34:02;1.40;99.90
71084;DHT22;58741;52.672;13.548;2024-01-30T08:36:29;1.50;99.90
71084;DHT22;58741;52.672;13.548;2024-01-30T08:38:56;1.60;99.90
71084;DHT22;58741;52.672;13.548;2024-01-30T08:41:29;1.60;99.90
71084;DHT22;58741;52.672;13.548;2024-01-30T08:43:56;1.70;99.90
71084;DHT22;58741;52.672;13.548;2024-01-30T08:46:23;1.80;99.90
71084;DHT22;58741;52.672;13.548;2024-01-30T08:48:50;1.90;99.90
71084;DHT22;58741;52.672;13.548;2024-01-30T08:51:17;2.00;99.90
71084;DHT22;58741;52.672;13.548;2024-01-30T08:53:44;2.10;99.90
71084;DHT22;58741;52.672;13.548;2024-01-30T08:56:11;2.20;99.90
71084;DHT22;58741;52.672;13.548;2024-01-30T08:58:38;2.30;99.90
71084;DHT22;58741;52.672;13.548;2024-01-30T09:01:05;2.40;99.90
71084;DHT22;58741;52.672;13.548;2024-01-30T09:03:32;2.40;99.90
71084;DHT22;58741;52.672;13.548;2024-01-30T09:05:59;2.60;99.90
71084;DHT22;58741;52.672;13.548;2024-01-30T09:08:26;2.70;99.90
71084;DHT22;58741;52.672;13.548;2024-01-30T09:10:53;2.70;99.90
71084;DHT22;58741;52.672;13.548;2024-01-30T09:13:20;2.80;99.90
71084;DHT22;58741;52.672;13.548;2024-01-30T09:15:46;2.90;99.90
71084;DHT22;58741;52.672;13.548;2024-01-30T09:18:13;3.00;99.90
71084;DHT22;58741;52.672;13.548;2024-01-30T09:20:40;3.00;99.90
71084;DHT22;58741;52.672;13.548;2024-01-30T09:23:07;3.10;99.90
71084;DHT22;58741;52.672;13.548;2024-01-30T09:25:34;3.20;99.90
71084;DHT22;58741;52.672;13.548;2024-01-30T09:28:01;3.20;99.90
71084;DHT22;58741;52.672;13.548;2024-01-30T09:30:28;3.30;99.90
71084;DHT22;58741;52.672;13.548;2024-01-30T09:32:55;3.40;99.90
71084;DHT22;58741;52.672;13.548;2024-01-30T09:35:21;3.40;99.90
71084;DHT22;58741;52.672;13.548;2024-01-30T09:37:48;3.50;99.90
71084;DHT22;58741;52.672;13.548;2024-01-30T09:40:15;3.60;99.90
71084;DHT22;58741;52.672;13.548;2024-01-30T09:42:50;3.70;99.90
71084;DHT22;58741;52.672;13.548;2024-01-30T09:45:18;3.70;99.90
71084;DHT22;58741;52.672;13.548;2024-01-30T09:47:48;3.80;99.90
71084;DHT22;58741;52.672;13.548;2024-01-30T09:50:15;3.90;99.90
71084;DHT22;58741;52.672;13.548;2024-01-30T09:52:46;3.90;99.90
71084;DHT22;58741;52.672;13.548;2024-01-30T09:55:13;4.00;99.90
71084;DHT22;58741;52.672;13.548;2024-01-30T09:57:41;4.10;99.90
71084;DHT22;58741;52.672;13.548;2024-01-30T10:00:09;4.10;99.90
71084;DHT22;58741;52.672;13.548;2024-01-30T10:02:39;4.30;99.90
71084;DHT22;58741;52.672;13.548;2024-01-30T10:05:08;4.30;99.90
71084;DHT22;58741;52.672;13.548;2024-01-30T10:07:35;4.40;99.90
71084;DHT22;58741;52.672;13.548;2024-01-30T10:10:02;4.50;99.90
71084;DHT22;58741;52.672;13.548;2024-01-30T10:12:29;4.60;99.90
71084;DHT22;58741;52.672;13.548;2024-01-30T10:14:56;4.60;99.90
71084;DHT22;58741;52.672;13.548;2024-01-30T10:17:25;4.80;99.90
71084;DHT22;58741;52.672;13.548;2024-01-30T10:19:59;4.90;99.90
71084;DHT22;58741;52.672;13.548;2024-01-30T10:22:28;4.90;99.90
71084;DHT22;58741;52.672;13.548;2024-01-30T10:24:55;5.00;99.90
71084;DHT22;58741;52.672;13.548;2024-01-30T10:27:28;5.10;99.90
71084;DHT22;58741;52.672;13.548;2024-01-30T10:29:55;5.20;99.90
71084;DHT22;58741;52.672;13.548;2024-01-30T10:32:22;5.20;99.90
71084;DHT22;58741;52.672;13.548;2024-01-30T10:34:49;5.20;99.90
71084;DHT22;58741;52.672;13.548;2024-01-30T10:37:18;5.30;99.90
71084;DHT22;58741;52.672;13.548;2024-01-30T10:39:47;5.30;99.90
71084;DHT22;58741;52.672;13.548;2024-01-30T10:42:18;5.40;99.90
71084;DHT22;58741;52.672;13.548;2024-01-30T10:45:06;5.40;99.90
71084;DHT22;58741;52.672;13.548;2024-01-30T10:47:36;5.50;99.90
71084;DHT22;58741;52.672;13.548;2024-01-30T10:50:07;5.50;99.90
71084;DHT22;58741;52.672;13.548;2024-01-30T10:52:36;5.60;99.90
71084;DHT22;58741;52.672;13.548;2024-01-30T10:55:04;5.70;99.90
71084;DHT22;58741;52.672;13.548;2024-01-30T10:57:34;5.70;99.90
71084;DHT22;58741;52.672;13.548;2024-01-30T11:00:04;5.80;99.90
71084;DHT22;58741;52.672;13.548;2024-01-30T11:02:43;5.90;99.90
71084;DHT22;58741;52.672;13.548;2024-01-30T11:05:11;6.00;99.90
71084;DHT22;58741;52.672;13.548;2024-01-30T11:07:39;6.10;99.90
71084;DHT22;58741;52.672;13.548;2024-01-30T11:10:11;6.20;99.90
71084;DHT22;58741;52.672;13.548;2024-01-30T11:12:41;6.30;99.90
71084;DHT22;58741;52.672;13.548;2024-01-30T11:15:14;6.40;99.90
71084;DHT22;58741;52.672;13.548;2024-01-30T11:20:16;6.50;99.90
71084;DHT22;58741;52.672;13.548;2024-01-30T11:22:46;6.60;99.90
71084;DHT22;58741;52.672;13.548;2024-01-30T11:25:14;6.70;99.90
71084;DHT22;58741;52.672;13.548;2024-01-30T11:27:42;6.80;99.90
71084;DHT22;58741;52.672;13.548;2024-01-30T11:30:10;7.00;99.90
71084;DHT22;58741;52.672;13.548;2024-01-30T11:32:37;7.10;99.90
71084;DHT22;58741;52.672;13.548;2024-01-30T11:35:05;7.20;99.90
71084;DHT22;58741;52.672;13.548;2024-01-30T11:37:36;7.20;99.90
71084;DHT22;58741;52.672;13.548;2024-01-30T11:40:05;7.30;99.90
71084;DHT22;58741;52.672;13.548;2024-01-30T11:42:32;7.40;99.90
71084;DHT22;58741;52.672;13.548;2024-01-30T11:45:01;7.50;99.90
71084;DHT22;58741;52.672;13.548;2024-01-30T11:47:29;7.60;99.90
71084;DHT22;58741;52.672;13.548;2024-01-30T11:49:56;7.60;99.90
71084;DHT22;58741;52.672;13.548;2024-01-30T11:52:26;7.70;99.90
71084;DHT22;58741;52.672;13.548;2024-01-30T11:54:53;7.70;99.90
71084;DHT22;58741;52.672;13.548;2024-01-30T11:57:20;7.70;99.90
71084;DHT22;58741;52.672;13.548;2024-01-30T11:59:47;7.80;99.90
71084;DHT22;58741;52.672;13.548;2024-01-30T12:02:16;7.90;99.90
71084;DHT22;58741;52.672;13.548;2024-01-30T12:04:44;7.90;99.90
71084;DHT22;58741;52.672;13.548;2024-01-30T12:07:11;7.90;99.90
71084;DHT22;58741;52.672;13.548;2024-01-30T12:09:39;8.00;99.90
71084;DHT22;58741;52.672;13.548;2024-01-30T12:12:07;7.90;99.90
71084;DHT22;58741;52.672;13.548;2024-01-30T12:14:39;7.90;99.90
71084;DHT22;58741;52.672;13.548;2024-01-30T12:17:06;8.00;99.90
71084;DHT22;58741;52.672;13.548;2024-01-30T12:19:35;8.00;99.90
71084;DHT22;58741;52.672;13.548;2024-01-30T12:22:02;8.00;98.40
71084;DHT22;58741;52.672;13.548;2024-01-30T12:24:29;8.00;99.90
71084;DHT22;58741;52.672;13.548;2024-01-30T12:26:59;8.10;99.90
71084;DHT22;58741;52.672;13.548;2024-01-30T12:29:26;8.10;99.90
71084;DHT22;58741;52.672;13.548;2024-01-30T12:32:00;8.20;99.60
71084;DHT22;58741;52.672;13.548;2024-01-30T12:34:27;8.20;96.50
71084;DHT22;58741;52.672;13.548;2024-01-30T12:36:55;8.20;99.90
71084;DHT22;58741;52.672;13.548;2024-01-30T12:39:22;8.20;97.40
71084;DHT22;58741;52.672;13.548;2024-01-30T12:41:49;8.20;97.80
71084;DHT22;58741;52.672;13.548;2024-01-30T12:44:16;8.30;99.90
71084;DHT22;58741;52.672;13.548;2024-01-30T12:46:43;8.30;99.90
71084;DHT22;58741;52.672;13.548;2024-01-30T12:49:11;8.20;99.90
71084;DHT22;58741;52.672;13.548;2024-01-30T12:51:39;8.20;94.90
71084;DHT22;58741;52.672;13.548;2024-01-30T12:54:06;8.30;99.10
71084;DHT22;58741;52.672;13.548;2024-01-30T12:56:33;8.20;97.30
71084;DHT22;58741;52.672;13.548;2024-01-30T12:59:00;8.20;96.80
71084;DHT22;58741;52.672;13.548;2024-01-30T13:01:26;8.20;97.80
71084;DHT22;58741;52.672;13.548;2024-01-30T13:03:53;8.20;97.10
71084;DHT22;58741;52.672;13.548;2024-01-30T13:06:20;8.20;99.10
71084;DHT22;58741;52.672;13.548;2024-01-30T13:08:47;8.20;97.10
71084;DHT22;58741;52.672;13.548;2024-01-30T13:11:14;8.20;99.30
71084;DHT22;58741;52.672;13.548;2024-01-30T13:13:47;8.20;99.90
71084;DHT22;58741;52.672;13.548;2024-01-30T13:16:14;8.20;97.90
71084;DHT22;58741;52.672;13.548;2024-01-30T13:18:41;8.20;97.40
71084;DHT22;58741;52.672;13.548;2024-01-30T13:21:08;8.20;98.50
71084;DHT22;58741;52.672;13.548;2024-01-30T13:23:35;8.20;98.20
71084;DHT22;58741;52.672;13.548;2024-01-30T13:26:01;8.10;97.20
71084;DHT22;58741;52.672;13.548;2024-01-30T13:28:28;8.10;99.20
71084;DHT22;58741;52.672;13.548;2024-01-30T13:30:55;8.10;99.90
71084;DHT22;58741;52.672;13.548;2024-01-30T13:33:22;8.10;99.90
71084;DHT22;58741;52.672;13.548;2024-01-30T13:35:49;8.10;99.90
71084;DHT22;58741;52.672;13.548;2024-01-30T13:38:16;8.10;99.90
71084;DHT22;58741;52.672;13.548;2024-01-30T13:40:42;8.10;99.40
71084;DHT22;58741;52.672;13.548;2024-01-30T13:43:09;8.00;98.90
71084;DHT22;58741;52.672;13.548;2024-01-30T13:45:36;8.00;99.90
71084;DHT22;58741;52.672;13.548;2024-01-30T13:48:03;8.00;99.90
71084;DHT22;58741;52.672;13.548;2024-01-30T13:50:30;8.00;99.90
71084;DHT22;58741;52.672;13.548;2024-01-30T13:52:57;8.00;99.90
71084;DHT22;58741;52.672;13.548;2024-01-30T13:55:24;8.00;99.90
71084;DHT22;58741;52.672;13.548;2024-01-30T13:57:51;7.90;99.90
71084;DHT22;58741;52.672;13.548;2024-01-30T14:00:18;7.90;99.90
71084;DHT22;58741;52.672;13.548;2024-01-30T14:02:46;7.90;99.90
71084;DHT22;58741;52.672;13.548;2024-01-30T14:05:13;7.90;99.90
71084;DHT22;58741;52.672;13.548;2024-01-30T14:07:43;7.80;99.90
71084;DHT22;58741;52.672;13.548;2024-01-30T14:10:10;7.80;99.90
71084;DHT22;58741;52.672;13.548;2024-01-30T14:12:42;7.80;99.90
71084;DHT22;58741;52.672;13.548;2024-01-30T14:15:10;7.80;99.90
71084;DHT22;58741;52.672;13.548;2024-01-30T14:17:53;7.80;99.90
71084;DHT22;58741;52.672;13.548;2024-01-30T14:20:19;7.80;99.90
71084;DHT22;58741;52.672;13.548;2024-01-30T14:22:46;7.80;99.90
71084;DHT22;58741;52.672;13.548;2024-01-30T14:25:13;7.70;99.90
71084;DHT22;58741;52.672;13.548;2024-01-30T14:27:40;7.70;99.90
71084;DHT22;58741;52.672;13.548;2024-01-30T14:30:10;7.70;99.90
71084;DHT22;58741;52.672;13.548;2024-01-30T14:32:37;7.70;99.90
71084;DHT22;58741;52.672;13.548;2024-01-30T14:35:05;7.70;99.90
71084;DHT22;58741;52.672;13.548;2024-01-30T14:37:32;7.60;99.90
71084;DHT22;58741;52.672;13.548;2024-01-30T14:39:58;7.60;99.90
71084;DHT22;58741;52.672;13.548;2024-01-30T14:42:26;7.60;99.90
71084;DHT22;58741;52.672;13.548;2024-01-30T14:44:53;7.60;99.90
71084;DHT22;58741;52.672;13.548;2024-01-30T14:47:20;7.50;99.90
71084;DHT22;58741;52.672;13.548;2024-01-30T14:49:47;7.50;99.90
71084;DHT22;58741;52.672;13.548;2024-01-30T14:52:13;7.50;99.90
71084;DHT22;58741;52.672;13.548;2024-01-30T14:54:41;7.50;99.90
71084;DHT22;58741;52.672;13.548;2024-01-30T14:57:07;7.50;99.90
71084;DHT22;58741;52.672;13.548;2024-01-30T14:59:35;7.40;99.90
71084;DHT22;58741;52.672;13.548;2024-01-30T15:02:02;7.40;99.90
71084;DHT22;58741;52.672;13.548;2024-01-30T15:04:29;7.40;99.90
71084;DHT22;58741;52.672;13.548;2024-01-30T15:06:56;7.30;99.90
71084;DHT22;58741;52.672;13.548;2024-01-30T15:09:23;7.30;99.90
71084;DHT22;58741;52.672;13.548;2024-01-30T15:11:52;7.30;99.90
71084;DHT22;58741;52.672;13.548;2024-01-30T15:14:19;7.30;99.90
71084;DHT22;58741;52.672;13.548;2024-01-30T15:16:45;7.20;99.90
71084;DHT22;58741;52.672;13.548;2024-01-30T15:19:12;7.20;99.90
71084;DHT22;58741;52.672;13.548;2024-01-30T15:21:39;7.20;99.90
71084;DHT22;58741;52.672;13.548;2024-01-30T15:24:06;7.10;99.90
71084;DHT22;58741;52.672;13.548;2024-01-30T15:26:33;7.10;99.90
71084;DHT22;58741;52.672;13.548;2024-01-30T15:28:59;7.00;99.90
71084;DHT22;58741;52.672;13.548;2024-01-30T15:31:26;7.00;99.90